Amsterdam, Netherlands

3:03 PM CEST on July 25, 2016 (GMT +0200)
Aalsmeer - Oost | | Change Station

Elev -13 ft 52.28 °N, 4.79 °E | Updated 2 minutes ago

Mostly Cloudy
Mostly Cloudy
74.8 °F
Feels Like 77 °F
N
3.8
Wind Variable Wind from South
Gusts 7.6 mph

Today
High -- | Low -- °F
--% Chance of Precip.
Yesterday
High -- | Low -- °F
Precip. -- in
Pressure 30.06 in
Visibility 6.2 miles
Clouds Scattered Clouds 1300 ft
Scattered Clouds 1600 ft
Mostly Cloudy 3600 ft
Heat Index 77 °F
Dew Point 61 °F
Humidity 63%
Rainfall 0.00 in
Snow Depth Not available.
5:51 AM 9:42 PM
Waning Gibbous, 66% visible
SPECI EHKD 251257Z AUTO 26014KT 9999 SCT013 SCT016 BKN036 19/15 Q1018 GRN 25012KT 9999 FEW012 SCT015 BKN030
Pressure 30.06 in
Visibility 6.2 miles
Clouds Scattered Clouds 1300 ft
Scattered Clouds 1600 ft
Mostly Cloudy 3600 ft
Heat Index 77 °F
Dew Point 61 °F
Humidity 63%
Rainfall 0.00 in
Snow Depth Not available.
5:51 AM 9:42 PM
Waning Gibbous, 66% visible
SPECI EHKD 251257Z AUTO 26014KT 9999 SCT013 SCT016 BKN036 19/15 Q1018 GRN 25012KT 9999 FEW012 SCT015 BKN030

10-Day Weather Forecast

×

Almanac

Astronomy

Jul. 25, 2016 Rise Set
Actual Time
Civil Twilight
Nautical Twilight
Astronomical Twilight
Moon
Length of Visible Light
Length of Day
Tomorrow will be .
, % of the Moon is Illuminated

Today's Extremes

Country Highs Country Lows

Community

WunderPhotos

Upload Photos

1,927,297 photos uploaded!

WunderBlog® & News

Nearby

Air Quality

  Air Quality AQ Index Pollutant
Not available.

Snow Depth

Station Depth Elevation

Earthquake Activity

City Distance Mag. Time & Date
Minimum magnitude displayed is 2.5.

Coastal Water Temperatures

Place Temperature

Stations

Nearby Weather Stations

Station Location Temp. Windchill Dew Point Humidity Wind Precip. Elev Updated Type